Аэропорт: Чебоксары. Чебоксары

ICAO: UWKS

METAR:
2019/01/21 23:00
UWKS 212300Z 28003MPS 3000 -SN SCT040 M12/M14 Q1005 R24/820342 NOSIG RMK QFE740
METAR:
2015/12/20 18:00
TAF UWKS 201632Z 2018/2103 27003MPS 2700 -SNRA BR OVC007 
      TEMPO 2018/2102 0500 FZDZ FZFG OVC002